Time;durP1;ratioP1;P1;durP2;ratioP2;P2;SDS_P1;SDS_P2;PMS_P1;PMS_P2;Temp;Humidity;BMP_temperature;BMP_pressure;BME280_temperature;BME280_humidity;BME280_pressure;Samples;Min_cycle;Max_cycle;Signal;HPM_P1;HPM_P2
2021/09/06 00:00:08;;;;;;;14.73;11.17;;;12.80;95.50;;;;;;4974613;28;20077;-68
2021/09/06 00:02:34;;;;;;;16.23;11.73;;;12.80;95.70;;;;;;4972704;28;20634;-68
2021/09/06 00:05:00;;;;;;;17.17;12.93;;;12.80;95.80;;;;;;4974682;28;20133;-67
2021/09/06 00:07:25;;;;;;;15.37;12.37;;;12.90;95.90;;;;;;4972229;28;20394;-67
2021/09/06 00:09:56;;;;;;;16.27;13.07;;;12.90;95.90;;;;;;4972402;28;20059;-67
2021/09/06 00:12:22;;;;;;;16.77;12.73;;;12.80;96.00;;;;;;4974344;28;20051;-68
2021/09/06 00:14:47;;;;;;;15.37;11.23;;;12.80;96.00;;;;;;4974355;28;20054;-67
2021/09/06 00:17:13;;;;;;;16.87;13.27;;;12.80;96.00;;;;;;4972279;28;20046;-67
2021/09/06 00:19:38;;;;;;;15.47;10.53;;;12.80;96.00;;;;;;4974416;28;20043;-67
2021/09/06 00:22:04;;;;;;;16.60;10.97;;;12.80;96.10;;;;;;4972928;28;20054;-67
2021/09/06 00:24:29;;;;;;;19.80;13.73;;;12.80;96.00;;;;;;4973223;28;20046;-68
2021/09/06 00:26:55;;;;;;;17.23;13.07;;;12.80;96.10;;;;;;4973307;28;20061;-68
2021/09/06 00:29:20;;;;;;;14.10;11.27;;;12.80;96.10;;;;;;4973404;28;20043;-68
2021/09/06 00:31:46;;;;;;;14.47;12.13;;;12.70;96.10;;;;;;4973843;28;20451;-68
2021/09/06 00:34:12;;;;;;;18.10;13.07;;;12.70;96.20;;;;;;4972261;28;20600;-67
2021/09/06 00:36:37;;;;;;;15.13;11.90;;;12.70;96.20;;;;;;4973474;28;20047;-67
2021/09/06 00:39:03;;;;;;;16.70;13.00;;;12.70;96.20;;;;;;4973926;28;20473;-67
2021/09/06 00:41:28;;;;;;;16.20;13.20;;;12.70;96.30;;;;;;4973429;28;20496;-67
2021/09/06 00:43:54;;;;;;;13.40;12.00;;;12.70;96.40;;;;;;4973048;28;20114;-67
2021/09/06 00:46:20;;;;;;;14.00;11.43;;;12.70;96.50;;;;;;4973477;28;20056;-67
2021/09/06 00:48:46;;;;;;;16.90;12.80;;;12.70;96.50;;;;;;4973969;28;20039;-67
2021/09/06 00:51:11;;;;;;;16.03;11.23;;;12.60;96.50;;;;;;4971627;28;20055;-67
2021/09/06 00:53:37;;;;;;;16.53;11.87;;;12.60;96.30;;;;;;4973784;28;20582;-68
2021/09/06 00:56:03;;;;;;;15.27;12.23;;;12.60;96.30;;;;;;4973748;28;20121;-67
2021/09/06 00:58:29;;;;;;;15.80;12.30;;;12.50;96.30;;;;;;4972659;28;20051;-68
2021/09/06 01:00:54;;;;;;;21.63;15.50;;;12.50;96.30;;;;;;4973618;28;20082;-67
2021/09/06 01:03:20;;;;;;;15.33;12.87;;;12.40;96.40;;;;;;4973381;28;20043;-68
2021/09/06 01:05:46;;;;;;;14.30;12.07;;;12.40;96.40;;;;;;4971919;28;20058;-67
2021/09/06 01:08:11;;;;;;;17.10;13.13;;;12.40;96.40;;;;;;4973194;28;20035;-67
2021/09/06 01:10:37;;;;;;;15.00;12.70;;;12.40;96.30;;;;;;4972397;28;20058;-67
2021/09/06 01:13:03;;;;;;;17.07;14.37;;;12.40;96.40;;;;;;4971556;28;20051;-67
2021/09/06 01:15:28;;;;;;;16.10;12.30;;;12.30;96.40;;;;;;4972976;28;20058;-67
2021/09/06 01:17:54;;;;;;;17.00;13.80;;;12.40;96.40;;;;;;4973185;28;20042;-67
2021/09/06 01:20:20;;;;;;;20.63;14.83;;;12.30;96.40;;;;;;4971254;28;20049;-67
2021/09/06 01:22:45;;;;;;;16.77;14.20;;;12.30;96.50;;;;;;4973391;28;20113;-67
2021/09/06 01:25:14;;;;;;;15.17;10.73;;;12.30;96.50;;;;;;4973445;28;20061;-67
2021/09/06 01:27:40;;;;;;;16.70;12.17;;;12.40;96.50;;;;;;4971207;28;20146;-67
2021/09/06 01:30:06;;;;;;;20.77;17.37;;;12.30;96.40;;;;;;4972359;28;20122;-67
2021/09/06 01:32:32;;;;;;;17.63;14.50;;;12.30;96.40;;;;;;4973220;28;20042;-68
2021/09/06 01:34:58;;;;;;;22.67;16.73;;;12.30;96.50;;;;;;4971037;28;20046;-67
2021/09/06 01:37:23;;;;;;;19.97;14.77;;;12.30;96.50;;;;;;4973058;28;20054;-67
2021/09/06 01:39:49;;;;;;;25.27;18.27;;;12.20;96.60;;;;;;4972420;28;20039;-67
2021/09/06 01:42:14;;;;;;;25.33;18.57;;;12.20;96.70;;;;;;4972974;28;20049;-67
2021/09/06 01:44:40;;;;;;;20.57;15.63;;;12.30;96.80;;;;;;4973048;28;20043;-67
2021/09/06 01:47:05;;;;;;;26.30;18.40;;;12.30;96.90;;;;;;4972621;28;20145;-67
2021/09/06 01:49:31;;;;;;;19.20;14.43;;;12.20;96.90;;;;;;4973186;28;20118;-67
2021/09/06 01:51:57;;;;;;;23.23;17.67;;;12.30;97.00;;;;;;4973166;28;20122;-67
2021/09/06 01:54:22;;;;;;;25.87;19.83;;;12.30;97.00;;;;;;4972129;28;20546;-67
2021/09/06 01:56:48;;;;;;;28.07;19.37;;;12.20;97.00;;;;;;4973105;28;20133;-67
2021/09/06 01:59:13;;;;;;;25.67;20.10;;;12.20;97.00;;;;;;4971475;28;20054;-67
2021/09/06 02:01:39;;;;;;;28.43;20.03;;;12.20;97.00;;;;;;4970957;28;20047;-67
2021/09/06 02:04:04;;;;;;;29.80;18.83;;;12.20;97.10;;;;;;4973115;28;20043;-67
2021/09/06 02:06:30;;;;;;;24.63;19.70;;;12.20;97.10;;;;;;4972884;28;20043;-67
2021/09/06 02:08:55;;;;;;;32.27;20.47;;;12.20;97.20;;;;;;4972407;28;20094;-67
2021/09/06 02:11:21;;;;;;;25.77;18.93;;;12.20;97.20;;;;;;4972657;28;20053;-67
2021/09/06 02:13:47;;;;;;;20.87;13.97;;;12.20;97.20;;;;;;4973174;28;20119;-67
2021/09/06 02:16:12;;;;;;;21.77;16.57;;;12.20;97.10;;;;;;4972101;28;20053;-68
2021/09/06 02:18:38;;;;;;;24.00;16.03;;;12.10;97.10;;;;;;4973455;28;20144;-67
2021/09/06 02:21:03;;;;;;;24.70;17.23;;;12.10;97.10;;;;;;4972793;28;20047;-67
2021/09/06 02:23:29;;;;;;;29.20;19.50;;;12.10;97.10;;;;;;4972152;28;20086;-67
2021/09/06 02:25:54;;;;;;;29.33;20.03;;;12.00;97.10;;;;;;4972764;28;20434;-67
2021/09/06 02:28:20;;;;;;;26.27;18.63;;;12.00;97.20;;;;;;4972488;28;20403;-67
2021/09/06 02:30:45;;;;;;;27.37;19.03;;;12.00;97.30;;;;;;4973694;28;20042;-67
2021/09/06 02:33:11;;;;;;;23.20;17.23;;;12.00;97.40;;;;;;4976251;28;20053;-67
2021/09/06 02:35:37;;;;;;;24.43;18.93;;;11.90;97.50;;;;;;4976098;28;20535;-67
2021/09/06 02:38:03;;;;;;;23.00;18.73;;;11.90;97.60;;;;;;4975649;28;20555;-67
2021/09/06 02:40:28;;;;;;;24.10;18.33;;;11.90;97.70;;;;;;4975832;28;20443;-67
2021/09/06 02:42:54;;;;;;;21.40;16.40;;;11.90;97.70;;;;;;4975983;28;20049;-67
2021/09/06 02:45:19;;;;;;;22.67;18.37;;;11.90;97.60;;;;;;4974173;28;20097;-67
2021/09/06 02:47:46;;;;;;;18.03;15.63;;;11.80;97.60;;;;;;4976083;28;20050;-67
2021/09/06 02:50:11;;;;;;;22.50;16.00;;;11.80;97.60;;;;;;4975133;28;20480;-67
2021/09/06 02:52:37;;;;;;;20.83;15.93;;;11.80;97.40;;;;;;4976052;28;20097;-67
2021/09/06 02:55:03;;;;;;;20.60;15.60;;;11.70;97.30;;;;;;4976047;28;20556;-67
2021/09/06 02:57:29;;;;;;;22.43;16.43;;;11.70;97.30;;;;;;4974752;28;20042;-67
2021/09/06 02:59:54;;;;;;;20.47;14.73;;;11.60;97.20;;;;;;4975708;28;20499;-67
2021/09/06 03:02:20;;;;;;;22.53;16.13;;;11.60;97.20;;;;;;4975479;28;20411;-67
2021/09/06 03:04:46;;;;;;;21.03;15.03;;;11.50;97.20;;;;;;4975086;28;20441;-67
2021/09/06 03:07:11;;;;;;;21.00;15.00;;;11.50;97.20;;;;;;4974143;28;20400;-67
2021/09/06 03:09:37;;;;;;;21.53;15.77;;;11.50;97.20;;;;;;4975456;28;20132;-67
2021/09/06 03:12:03;;;;;;;20.17;15.40;;;11.50;97.20;;;;;;4974860;28;20046;-67
2021/09/06 03:14:28;;;;;;;17.83;13.80;;;11.50;97.20;;;;;;4975100;28;20047;-67
2021/09/06 03:16:54;;;;;;;15.30;12.27;;;11.50;97.20;;;;;;4975639;28;20397;-67
2021/09/06 03:19:20;;;;;;;18.20;13.80;;;11.40;97.00;;;;;;4974432;28;20043;-67
2021/09/06 03:21:46;;;;;;;17.47;13.43;;;11.40;97.00;;;;;;4974199;28;20480;-67
2021/09/06 03:24:11;;;;;;;18.80;13.07;;;11.40;97.00;;;;;;4973900;28;20046;-67
2021/09/06 03:26:37;;;;;;;19.17;14.93;;;11.40;97.00;;;;;;4974435;28;20042;-67
2021/09/06 03:29:03;;;;;;;20.67;16.07;;;11.30;97.00;;;;;;4975221;28;20049;-67
2021/09/06 03:31:31;;;;;;;25.73;18.27;;;11.30;97.10;;;;;;4975108;28;20054;-68
2021/09/06 03:33:58;;;;;;;22.27;18.10;;;11.30;97.10;;;;;;4974560;28;20100;-67
2021/09/06 03:36:23;;;;;;;19.20;15.40;;;11.30;97.10;;;;;;4974649;28;20391;-67
2021/09/06 03:38:50;;;;;;;16.80;13.03;;;11.40;97.20;;;;;;4975179;28;20039;-67
2021/09/06 03:41:16;;;;;;;20.30;16.07;;;11.30;97.10;;;;;;4973950;28;20043;-67
2021/09/06 03:43:42;;;;;;;19.27;14.20;;;11.30;97.00;;;;;;4975143;28;20101;-67
2021/09/06 03:46:07;;;;;;;19.43;13.77;;;11.30;96.90;;;;;;4974711;28;20082;-68
2021/09/06 03:48:33;;;;;;;17.63;14.03;;;11.20;96.90;;;;;;4974329;28;20046;-67
2021/09/06 03:50:59;;;;;;;20.23;16.53;;;11.20;96.90;;;;;;4973637;28;20054;-67
2021/09/06 03:53:24;;;;;;;18.33;14.83;;;11.10;96.90;;;;;;4973877;28;20518;-67
2021/09/06 03:55:50;;;;;;;18.47;14.50;;;11.20;97.00;;;;;;4973724;28;20046;-67
2021/09/06 03:58:15;;;;;;;23.83;17.43;;;11.20;96.90;;;;;;4974575;28;20039;-67
2021/09/06 04:00:41;;;;;;;18.23;15.13;;;11.10;96.90;;;;;;4973901;28;20110;-67
2021/09/06 04:03:06;;;;;;;22.93;17.73;;;11.10;97.00;;;;;;4974588;28;20142;-67
2021/09/06 04:05:32;;;;;;;24.43;17.50;;;11.10;97.00;;;;;;4974739;28;20039;-67
2021/09/06 04:07:57;;;;;;;19.53;15.73;;;11.10;97.10;;;;;;4973916;28;20543;-67
2021/09/06 04:10:23;;;;;;;18.50;16.03;;;11.10;97.10;;;;;;4974349;28;20047;-67
2021/09/06 04:12:48;;;;;;;29.93;20.90;;;11.10;97.20;;;;;;4974599;28;20051;-67
2021/09/06 04:15:14;;;;;;;25.43;20.03;;;11.10;97.20;;;;;;4973660;28;20053;-67
2021/09/06 04:17:40;;;;;;;22.03;18.50;;;11.10;97.30;;;;;;4974418;28;20049;-67
2021/09/06 04:20:06;;;;;;;19.47;16.17;;;11.10;97.40;;;;;;4974873;28;20463;-67
2021/09/06 04:22:32;;;;;;;20.50;17.30;;;11.10;97.90;;;;;;4973573;28;20134;-67
2021/09/06 04:25:00;;;;;;;22.47;18.80;;;11.10;97.60;;;;;;4974182;28;20085;-67
2021/09/06 04:27:25;;;;;;;19.40;16.10;;;11.10;97.60;;;;;;4974074;28;20069;-67
2021/09/06 04:29:51;;;;;;;20.77;18.20;;;11.10;97.70;;;;;;4973447;28;20496;-67
2021/09/06 04:32:16;;;;;;;21.93;17.33;;;11.10;97.70;;;;;;4973809;28;20039;-67
2021/09/06 04:34:42;;;;;;;19.57;14.73;;;11.10;97.70;;;;;;4973769;28;20054;-67
2021/09/06 04:37:08;;;;;;;23.60;16.57;;;11.10;97.70;;;;;;4973086;28;20059;-67
2021/09/06 04:39:35;;;;;;;21.53;15.60;;;11.00;97.70;;;;;;4973899;28;20045;-67
2021/09/06 04:42:03;;;;;;;18.27;14.87;;;11.10;97.80;;;;;;4972687;28;20047;-67
2021/09/06 04:44:28;;;;;;;19.07;16.33;;;11.00;97.70;;;;;;4971747;28;20046;-67
2021/09/06 04:46:54;;;;;;;18.33;15.03;;;11.00;97.80;;;;;;4973906;28;20046;-67
2021/09/06 04:49:19;;;;;;;20.10;15.37;;;11.00;97.80;;;;;;4973409;28;20415;-67
2021/09/06 04:51:45;;;;;;;15.43;13.13;;;11.00;97.70;;;;;;4973123;28;20043;-67
2021/09/06 04:54:11;;;;;;;16.70;14.63;;;11.00;97.60;;;;;;4972891;28;20046;-67
2021/09/06 04:56:36;;;;;;;20.00;15.93;;;11.00;97.60;;;;;;4972230;28;20097;-67
2021/09/06 04:59:03;;;;;;;20.23;15.73;;;11.00;97.50;;;;;;4973206;28;20042;-67
2021/09/06 05:01:32;;;;;;;20.70;15.13;;;10.90;97.40;;;;;;4982895;28;20466;-67
2021/09/06 05:03:57;;;;;;;20.87;15.20;;;10.90;97.40;;;;;;4990850;28;20546;-67
2021/09/06 05:06:23;;;;;;;18.67;13.97;;;10.90;97.40;;;;;;4992478;28;20044;-67
2021/09/06 05:08:49;;;;;;;17.53;13.77;;;10.90;97.40;;;;;;4991248;28;20042;-66
2021/09/06 05:11:14;;;;;;;19.93;14.83;;;10.80;97.70;;;;;;4990135;28;20053;-66
2021/09/06 05:13:40;;;;;;;22.70;15.67;;;10.80;97.30;;;;;;4991245;28;20049;-66
2021/09/06 05:16:05;;;;;;;19.63;15.63;;;10.80;97.30;;;;;;4992567;28;20053;-66
2021/09/06 05:18:31;;;;;;;22.53;16.43;;;10.80;97.30;;;;;;4991219;28;20088;-66
2021/09/06 05:20:56;;;;;;;22.47;16.93;;;10.80;97.30;;;;;;4992207;28;21253;-67
2021/09/06 05:23:22;;;;;;;20.40;15.87;;;10.80;97.30;;;;;;4992004;28;20038;-67
2021/09/06 05:25:48;;;;;;;20.97;17.77;;;10.80;97.30;;;;;;4991746;28;20090;-66
2021/09/06 05:28:14;;;;;;;26.93;19.67;;;10.80;97.30;;;;;;4990123;28;20046;-67
2021/09/06 05:30:39;;;;;;;26.10;20.07;;;10.70;97.30;;;;;;4992176;28;20042;-66
2021/09/06 05:33:05;;;;;;;26.67;20.13;;;10.70;97.40;;;;;;4991463;28;20085;-66
2021/09/06 05:35:31;;;;;;;24.03;18.27;;;10.80;97.50;;;;;;4991788;28;20046;-67
2021/09/06 05:37:56;;;;;;;27.47;21.33;;;10.80;97.60;;;;;;4991830;28;20050;-67
2021/09/06 05:40:22;;;;;;;20.97;16.67;;;10.80;97.60;;;;;;4989414;28;20402;-67
2021/09/06 05:42:47;;;;;;;27.13;18.50;;;10.80;97.60;;;;;;4990875;28;20464;-66
2021/09/06 05:45:13;;;;;;;27.87;19.80;;;10.80;97.70;;;;;;4991829;28;20038;-67
2021/09/06 05:47:39;;;;;;;22.03;17.47;;;10.90;97.70;;;;;;4990446;28;20054;-67
2021/09/06 05:50:04;;;;;;;23.53;19.23;;;10.90;97.70;;;;;;4991214;28;20042;-66
2021/09/06 05:52:30;;;;;;;24.07;17.70;;;11.00;97.70;;;;;;4991432;28;20046;-66
2021/09/06 05:54:56;;;;;;;25.23;19.67;;;11.00;97.70;;;;;;4990945;28;20582;-66
2021/09/06 05:57:23;;;;;;;22.13;17.77;;;11.00;97.70;;;;;;4989807;28;20085;-66
2021/09/06 05:59:49;;;;;;;22.33;19.13;;;11.10;97.80;;;;;;4990259;28;20446;-66
2021/09/06 06:02:14;;;;;;;20.43;18.00;;;11.10;97.90;;;;;;4990152;28;20096;-66
2021/09/06 06:04:40;;;;;;;22.70;17.87;;;11.10;97.90;;;;;;4991035;28;20039;-66
2021/09/06 06:07:05;;;;;;;21.50;15.73;;;11.20;98.00;;;;;;4993102;28;20049;-66
2021/09/06 06:09:31;;;;;;;21.10;16.77;;;11.20;98.00;;;;;;4994711;28;20080;-67
2021/09/06 06:11:56;;;;;;;22.37;17.50;;;11.30;98.10;;;;;;4994846;28;20064;-66
2021/09/06 06:14:24;;;;;;;19.13;16.73;;;11.30;98.10;;;;;;4992687;28;20427;-66
2021/09/06 06:16:50;;;;;;;21.93;16.70;;;11.40;98.10;;;;;;4993916;28;20180;-66
2021/09/06 06:19:15;;;;;;;24.90;19.53;;;11.40;98.10;;;;;;4993350;28;20121;-66
2021/09/06 06:21:41;;;;;;;22.77;18.40;;;11.50;98.10;;;;;;4992798;28;20472;-66
2021/09/06 06:24:06;;;;;;;24.40;18.63;;;11.50;98.20;;;;;;4994557;28;20074;-66
2021/09/06 06:26:32;;;;;;;18.10;15.67;;;11.60;98.10;;;;;;4995016;28;20054;-66
2021/09/06 06:28:58;;;;;;;22.10;17.37;;;11.60;98.10;;;;;;4992684;28;20051;-67
2021/09/06 06:31:24;;;;;;;22.53;17.87;;;11.70;98.20;;;;;;4994606;28;20100;-66
2021/09/06 06:33:50;;;;;;;24.77;18.87;;;11.80;98.30;;;;;;4994352;28;20049;-67
2021/09/06 06:36:16;;;;;;;21.40;16.73;;;11.80;98.30;;;;;;4993491;28;20474;-67
2021/09/06 06:38:41;;;;;;;20.63;15.87;;;11.80;98.30;;;;;;4993908;28;20037;-67
2021/09/06 06:41:07;;;;;;;17.17;15.13;;;11.90;98.30;;;;;;4993802;28;20046;-67
2021/09/06 06:43:33;;;;;;;17.33;15.50;;;11.80;98.40;;;;;;4993819;28;20042;-67
2021/09/06 06:45:58;;;;;;;19.47;15.27;;;11.90;98.40;;;;;;4994196;28;20054;-67
2021/09/06 06:48:24;;;;;;;18.57;14.07;;;11.90;98.50;;;;;;4987853;28;20054;-67
2021/09/06 06:50:50;;;;;;;18.57;15.73;;;12.00;98.50;;;;;;4990819;28;20135;-67
2021/09/06 06:53:16;;;;;;;16.60;14.03;;;12.10;98.60;;;;;;4990495;28;20479;-66
2021/09/06 06:55:42;;;;;;;17.57;13.97;;;12.10;98.60;;;;;;4989176;28;20042;-66
2021/09/06 06:58:08;;;;;;;16.57;13.77;;;12.20;98.60;;;;;;4988580;28;20503;-67
2021/09/06 07:00:34;;;;;;;16.80;14.40;;;12.30;98.70;;;;;;4991204;28;20141;-67
2021/09/06 07:02:59;;;;;;;14.87;12.93;;;12.40;98.70;;;;;;4991159;28;20129;-68
2021/09/06 07:05:25;;;;;;;17.73;15.93;;;12.50;98.70;;;;;;4990000;28;20042;-67
2021/09/06 07:07:51;;;;;;;15.20;13.60;;;12.70;98.80;;;;;;4992009;28;20043;-68
2021/09/06 07:10:17;;;;;;;14.17;12.77;;;12.90;98.80;;;;;;4990855;28;20042;-68
2021/09/06 07:12:42;;;;;;;15.93;14.17;;;13.00;98.80;;;;;;4991732;28;20047;-67
2021/09/06 07:15:09;;;;;;;13.60;11.97;;;13.10;98.70;;;;;;4990887;28;20046;-67
2021/09/06 07:17:35;;;;;;;14.30;12.87;;;13.20;98.70;;;;;;4988567;28;20050;-67
2021/09/06 07:20:01;;;;;;;16.97;15.27;;;13.40;98.70;;;;;;4989475;28;20073;-67
2021/09/06 07:22:27;;;;;;;16.57;14.77;;;13.60;98.80;;;;;;4989952;28;20050;-68
2021/09/06 07:24:55;;;;;;;15.13;13.53;;;13.70;98.80;;;;;;4991027;28;20431;-67
2021/09/06 07:27:22;;;;;;;17.73;14.27;;;13.90;98.70;;;;;;4990852;28;20434;-66
2021/09/06 07:29:48;;;;;;;17.93;15.07;;;14.00;98.60;;;;;;4989978;28;20663;-67
2021/09/06 07:32:13;;;;;;;10.60;9.60;;;14.10;98.60;;;;;;4989571;28;20050;-66
2021/09/06 07:34:39;;;;;;;16.87;15.23;;;14.30;98.60;;;;;;4989616;28;20510;-66
2021/09/06 07:37:06;;;;;;;20.73;15.97;;;14.50;98.50;;;;;;4991226;28;20474;-66
2021/09/06 07:39:33;;;;;;;20.73;16.43;;;14.60;98.40;;;;;;4990202;28;20042;-66
2021/09/06 07:41:59;;;;;;;16.33;14.57;;;14.80;98.20;;;;;;4991203;28;20495;-66
2021/09/06 07:44:25;;;;;;;17.53;15.00;;;14.90;98.00;;;;;;4990595;28;20043;-66
2021/09/06 07:46:52;;;;;;;17.27;15.53;;;15.00;97.90;;;;;;4990051;28;20073;-67
2021/09/06 07:49:17;;;;;;;18.50;16.00;;;15.10;97.90;;;;;;4990436;28;20046;-66
2021/09/06 07:51:46;;;;;;;19.20;17.30;;;15.20;97.90;;;;;;4991079;28;20046;-67
2021/09/06 07:54:12;;;;;;;20.47;18.17;;;15.30;97.90;;;;;;4989699;28;20125;-66
2021/09/06 07:56:38;;;;;;;20.50;18.07;;;15.30;97.80;;;;;;4990555;28;20470;-66
2021/09/06 07:59:04;;;;;;;20.63;17.93;;;15.40;97.90;;;;;;4990724;28;20081;-66
2021/09/06 08:01:30;;;;;;;24.80;21.80;;;15.40;97.80;;;;;;4989444;28;20105;-67
2021/09/06 08:03:55;;;;;;;26.13;21.43;;;15.50;97.80;;;;;;4989916;28;20042;-67
2021/09/06 08:06:21;;;;;;;25.10;20.23;;;15.60;97.80;;;;;;4988686;28;20046;-67
2021/09/06 08:08:46;;;;;;;25.13;21.00;;;15.70;97.70;;;;;;4989855;28;20136;-66
2021/09/06 08:11:12;;;;;;;25.00;21.07;;;15.70;97.70;;;;;;4989933;28;20050;-68
2021/09/06 08:13:37;;;;;;;24.47;21.17;;;15.80;97.70;;;;;;4987721;28;20057;-68
2021/09/06 08:16:03;;;;;;;28.30;21.33;;;15.90;97.70;;;;;;4990010;28;20061;-67
2021/09/06 08:18:29;;;;;;;24.17;20.30;;;16.00;97.50;;;;;;4990580;28;20050;-67
2021/09/06 08:20:54;;;;;;;24.73;21.17;;;16.20;97.40;;;;;;4989255;28;20764;-67
2021/09/06 08:23:20;;;;;;;20.90;18.10;;;16.30;97.30;;;;;;4989785;28;20100;-67
2021/09/06 08:25:47;;;;;;;22.13;19.70;;;16.40;97.00;;;;;;4989129;28;20046;-67
2021/09/06 08:28:12;;;;;;;23.73;19.53;;;16.60;96.80;;;;;;4988813;28;20052;-68
2021/09/06 08:30:38;;;;;;;20.20;17.10;;;16.70;96.60;;;;;;4989941;28;20046;-67
2021/09/06 08:33:03;;;;;;;20.77;17.20;;;16.80;96.20;;;;;;4989862;28;20695;-67
2021/09/06 08:35:29;;;;;;;21.00;17.00;;;16.90;96.00;;;;;;4988075;28;20064;-72
2021/09/06 08:37:54;;;;;;;20.77;16.43;;;17.00;95.80;;;;;;4988168;28;20047;-72
2021/09/06 08:40:20;;;;;;;18.90;14.87;;;17.20;95.50;;;;;;4988176;28;20050;-75
2021/09/06 08:42:46;;;;;;;18.83;15.30;;;17.30;95.10;;;;;;4987360;28;20055;-71
2021/09/06 08:45:13;;;;;;;18.83;13.87;;;17.40;95.10;;;;;;4989802;28;20038;-71
2021/09/06 08:47:39;;;;;;;20.50;15.23;;;17.50;94.70;;;;;;4989281;28;20527;-70
2021/09/06 08:50:08;;;;;;;17.83;14.10;;;17.60;94.20;;;;;;4987813;28;20054;-70
2021/09/06 08:52:34;;;;;;;19.07;14.23;;;17.80;93.60;;;;;;4988536;28;20082;-71
2021/09/06 08:54:59;;;;;;;15.30;12.30;;;18.00;93.10;;;;;;4988540;28;20049;-75
2021/09/06 08:57:25;;;;;;;17.97;13.63;;;18.10;92.50;;;;;;4986951;28;20066;-71
2021/09/06 08:59:58;;;;;;;18.03;13.57;;;18.20;92.30;;;;;;4987717;28;20446;-69
2021/09/06 09:02:24;;;;;;;17.03;13.03;;;18.30;91.80;;;;;;4989088;28;20659;-70
2021/09/06 09:05:01;;;;;;;14.97;12.23;;;18.30;91.10;;;;;;4987576;28;20064;-68
2021/09/06 09:07:29;;;;;;;16.17;11.37;;;18.40;90.40;;;;;;4987317;28;20058;-70
2021/09/06 09:09:55;;;;;;;15.27;11.93;;;18.40;90.30;;;;;;4988540;28;20070;-69
2021/09/06 09:12:21;;;;;;;13.70;10.57;;;18.40;90.40;;;;;;4988268;28;20043;-69
2021/09/06 09:14:53;;;;;;;16.97;11.93;;;18.40;90.80;;;;;;4989140;28;20047;-70
2021/09/06 09:17:19;;;;;;;14.93;11.50;;;18.40;91.50;;;;;;4988012;28;20074;-70
2021/09/06 09:19:45;;;;;;;13.10;10.83;;;18.40;91.70;;;;;;4988336;28;20473;-69
2021/09/06 09:22:18;;;;;;;18.90;12.43;;;18.30;91.70;;;;;;4987752;28;20050;-69
2021/09/06 09:24:54;;;;;;;15.53;13.10;;;18.40;91.60;;;;;;4987171;28;20061;-70
2021/09/06 09:27:29;;;;;;;14.80;11.90;;;18.50;91.30;;;;;;4987560;28;20042;-69
2021/09/06 09:29:55;;;;;;;16.00;10.83;;;18.50;91.00;;;;;;4987652;28;20054;-70
2021/09/06 09:32:20;;;;;;;17.53;12.87;;;18.60;90.80;;;;;;4988832;28;20049;-69
2021/09/06 09:34:46;;;;;;;16.70;12.07;;;18.60;90.30;;;;;;4994617;28;20061;-68
2021/09/06 09:37:12;;;;;;;13.70;11.37;;;18.70;90.10;;;;;;4990553;28;20115;-69
2021/09/06 09:39:37;;;;;;;13.47;10.20;;;18.70;89.20;;;;;;4992287;28;20101;-69
2021/09/06 09:42:05;;;;;;;14.77;10.67;;;18.70;88.50;;;;;;4995127;28;20049;-71
2021/09/06 09:44:31;;;;;;;13.97;9.57;;;18.80;87.90;;;;;;4995145;28;20045;-69
2021/09/06 09:47:01;;;;;;;14.40;9.77;;;18.80;87.90;;;;;;5011312;28;20076;-69
2021/09/06 09:49:28;;;;;;;13.03;10.63;;;18.90;86.90;;;;;;4995048;28;20725;-70
2021/09/06 09:51:54;;;;;;;13.37;10.37;;;18.90;85.60;;;;;;5012121;28;20777;-69
2021/09/06 09:54:20;;;;;;;18.20;11.00;;;19.00;84.50;;;;;;4993726;28;20045;-69
2021/09/06 09:56:47;;;;;;;16.97;10.90;;;19.10;83.30;;;;;;5012291;28;20084;-69
2021/09/06 09:59:14;;;;;;;16.43;10.93;;;19.20;82.30;;;;;;5011812;28;20584;-71
2021/09/06 10:01:48;;;;;;;14.53;10.67;;;19.20;81.80;;;;;;5011864;28;20053;-67
2021/09/06 10:04:18;;;;;;;14.07;9.93;;;19.30;80.90;;;;;;5011376;28;20100;-68
2021/09/06 10:06:45;;;;;;;14.27;10.63;;;19.40;81.60;;;;;;4995000;28;20511;-72
2021/09/06 10:09:13;;;;;;;11.70;8.17;;;19.50;80.30;;;;;;4992726;28;20054;-72
2021/09/06 10:11:41;;;;;;;12.47;9.13;;;19.60;80.90;;;;;;4992471;28;20314;-71
2021/09/06 10:14:16;;;;;;;15.47;10.40;;;19.60;80.90;;;;;;4991429;28;20038;-71
2021/09/06 10:16:42;;;;;;;13.50;9.63;;;19.60;80.20;;;;;;4975092;28;20050;-71
2021/09/06 10:19:10;;;;;;;13.33;10.20;;;19.60;79.70;;;;;;4991909;28;20495;-72
2021/09/06 10:21:46;;;;;;;12.30;9.40;;;19.60;79.30;;;;;;4973598;28;20061;-71
2021/09/06 10:24:19;;;;;;;12.77;9.87;;;19.70;78.70;;;;;;4974394;28;20039;-72
2021/09/06 10:26:46;;;;;;;16.90;11.00;;;19.70;78.40;;;;;;4992337;28;20403;-72
2021/09/06 10:29:20;;;;;;;12.73;9.90;;;19.80;77.30;;;;;;4973656;28;20042;-71
2021/09/06 10:32:01;;;;;;;14.57;10.27;;;19.90;76.90;;;;;;4991560;28;20081;-71
2021/09/06 10:34:29;;;;;;;14.43;10.57;;;20.10;76.50;;;;;;4991267;28;20704;-71
2021/09/06 10:36:57;;;;;;;11.23;8.37;;;20.20;76.40;;;;;;4974415;28;20057;-72
2021/09/06 10:39:22;;;;;;;12.02;8.95;;;20.40;76.60;;;;;;4974276;28;20046;-71
2021/09/06 10:41:50;;;;;;;11.50;9.00;;;20.50;75.90;;;;;;4973177;28;20560;-72
2021/09/06 10:44:20;;;;;;;13.37;9.60;;;20.60;74.80;;;;;;4991578;28;20061;-72
2021/09/06 10:46:57;;;;;;;12.40;9.55;;;20.60;73.50;;;;;;4992034;28;20403;-72
2021/09/06 10:49:27;;;;;;;14.07;9.13;;;20.60;73.40;;;;;;4990753;28;20054;-71
2021/09/06 10:51:55;;;;;;;11.00;8.70;;;20.60;74.20;;;;;;4990451;28;20043;-71
2021/09/06 10:54:20;;;;;;;10.35;8.02;;;20.70;74.20;;;;;;4994155;28;20053;-71
2021/09/06 10:56:46;;;;;;;11.00;7.77;;;20.80;73.70;;;;;;4993616;28;20053;-72
2021/09/06 10:59:11;;;;;;;11.45;8.23;;;20.80;73.10;;;;;;4977453;28;20407;-72
2021/09/06 11:01:37;;;;;;;11.27;9.15;;;20.80;72.30;;;;;;4994864;28;20483;-73
2021/09/06 11:04:03;;;;;;;12.55;8.63;;;20.70;72.10;;;;;;4994552;28;20119;-72
2021/09/06 11:06:29;;;;;;;12.43;8.23;;;20.80;72.60;;;;;;4977156;28;20129;-72
2021/09/06 11:08:55;;;;;;;16.17;8.88;;;20.70;72.40;;;;;;4994842;28;20046;-72
2021/09/06 11:11:27;;;;;;;11.23;8.82;;;20.60;72.20;;;;;;4992011;28;20133;-72
2021/09/06 11:13:52;;;;;;;13.60;9.38;;;20.60;72.10;;;;;;4994920;28;20054;-72
2021/09/06 11:16:19;;;;;;;11.57;9.00;;;20.50;71.80;;;;;;4993999;28;20061;-72
2021/09/06 11:18:50;;;;;;;11.27;7.57;;;20.40;71.50;;;;;;4994170;28;20061;-72
2021/09/06 11:21:19;;;;;;;11.70;8.15;;;20.40;72.10;;;;;;4994426;28;20054;-73
2021/09/06 11:23:46;;;;;;;11.02;8.13;;;20.30;73.20;;;;;;4993999;28;20057;-73
2021/09/06 11:26:28;;;;;;;10.48;8.50;;;20.20;74.60;;;;;;4976489;28;20058;-71
2021/09/06 11:28:53;;;;;;;11.48;7.55;;;20.10;75.10;;;;;;4994791;28;20058;-71
2021/09/06 11:31:21;;;;;;;8.45;6.47;;;20.10;76.30;;;;;;4976210;28;20054;-71
2021/09/06 11:34:04;;;;;;;15.32;8.63;;;20.10;77.40;;;;;;4994624;28;20562;-71
2021/09/06 11:36:30;;;;;;;11.18;9.68;;;20.30;76.20;;;;;;4993862;28;20483;-71
2021/09/06 11:38:56;;;;;;;11.07;8.88;;;20.40;75.40;;;;;;4976584;28;20129;-71
2021/09/06 11:41:22;;;;;;;13.02;9.82;;;20.60;74.30;;;;;;4994131;28;20503;-71
2021/09/06 11:43:48;;;;;;;11.00;8.38;;;20.80;72.80;;;;;;4994433;28;20061;-71
2021/09/06 11:46:15;;;;;;;13.10;9.05;;;21.00;72.50;;;;;;4993302;28;20041;-71
2021/09/06 11:48:49;;;;;;;10.13;8.30;;;21.10;70.40;;;;;;4994462;28;20092;-71
2021/09/06 11:51:16;;;;;;;13.40;9.20;;;21.20;70.10;;;;;;4994232;28;20076;-70
2021/09/06 11:54:02;;;;;;;14.32;9.80;;;21.20;69.90;;;;;;4993854;28;20391;-71
2021/09/06 11:56:29;;;;;;;13.45;9.85;;;21.20;69.70;;;;;;4994104;28;20448;-71
2021/09/06 11:58:59;;;;;;;12.48;8.75;;;21.20;69.00;;;;;;4993950;28;20128;-71
2021/09/06 12:01:25;;;;;;;11.30;9.27;;;21.20;69.10;;;;;;4976819;28;20358;-72
2021/09/06 12:03:51;;;;;;;11.90;9.25;;;21.30;69.00;;;;;;4976840;28;20483;-71
2021/09/06 12:06:18;;;;;;;11.88;9.45;;;21.30;67.30;;;;;;4975470;28;20128;-71
2021/09/06 12:08:56;;;;;;;11.60;8.63;;;21.40;67.20;;;;;;4976414;28;20049;-70
2021/09/06 12:11:21;;;;;;;10.68;9.02;;;21.50;66.40;;;;;;4993531;28;20444;-70
2021/09/06 12:13:57;;;;;;;11.85;8.55;;;21.60;66.80;;;;;;4990302;28;20049;-72
2021/09/06 12:16:32;;;;;;;15.32;8.95;;;21.70;65.50;;;;;;4971694;28;20045;-70
2021/09/06 12:18:58;;;;;;;11.07;9.00;;;21.70;65.60;;;;;;4974560;28;20097;-70
2021/09/06 12:21:25;;;;;;;11.73;8.88;;;21.80;66.60;;;;;;4972922;28;20043;-72
2021/09/06 12:23:59;;;;;;;13.40;8.43;;;21.80;65.20;;;;;;4973755;28;20109;-72